Latest Weather Observations for Territory Grape Farm

IDD60801

Issued at 12:31 pm CST Saturday 6 February 2016 (issued every 30 minutes, with the page automatically refreshed every 10 minutes)

About weather observations | Map of weather stations | Latest weather observations for NT | Other Formats
Station Details ID: 015643 Name: TERRITORY GRAPE FARM Lat: -22.45 Lon: 133.64 Height: 565.6 m
Data from the previous 72 hours. | See also: Recent months at Territory Grape Farm
Date/Time
CST
Temp
°C
App
Temp
°C
Dew
Point
Rel
Hum
%
Delta-T
°C
Wind Press
QNH
hPa
Press
MSL
hPa
Rain
since 9 am
mm
Dir
 
Spd
km/h
Gust
km/h
Spd
kts
Gust
kts
06/12:30pm 31.7 28.5 9.8 26 12.8 SE 17 28 9 15 1010.8 1006.4 0.0
06/12:00pm 31.6 28.7 9.8 26 12.7 SSE 15 37 8 20 1011.2 1006.8 0.0
06/11:30am 31.3 28.7 10.6 28 12.2 SSE 15 26 8 14 1011.5 1007.1 0.0
06/11:00am 31.4 27.5 10.7 28 12.2 SE 22 37 12 20 1011.8 1007.5 0.0
06/10:30am 31.0 27.5 10.9 29 11.9 SE 20 32 11 17 1012.1 1007.8 0.0
06/10:00am 29.8 27.1 10.4 30 11.3 SSE 15 22 8 12 1012.3 1008.0 0.0
06/09:30am 29.0 25.5 10.2 31 10.9 SSE 19 37 10 20 1012.4 1008.1 0.0
06/09:00am 28.1 25.5 9.4 31 10.6 S 13 19 7 10 1012.4 1008.1 0.0
06/08:30am 27.1 23.9 7.0 28 10.9 S 13 19 7 10 1012.3 1008.0 0.0
06/08:00am 25.5 22.5 6.2 29 10.3 SSW 11 19 6 10 1012.2 1007.9 0.0
06/07:30am 23.2 20.7 6.5 34 8.8 SW 9 13 5 7 1011.9 1007.6 0.0
06/07:00am 19.4 17.5 7.5 46 6.2 SSW 7 9 4 5 1011.8 1007.5 0.0
06/06:30am 17.8 16.3 6.7 48 5.7 SSW 4 6 2 3 1011.5 1007.1 0.0
06/06:00am 17.3 15.2 6.8 50 5.4 SW 7 9 4 5 1011.2 1006.8 0.0
06/05:30am 17.7 15.9 7.2 50 5.4 SW 6 7 3 4 1011.0 1006.6 0.0
06/05:00am 18.1 15.9 6.3 46 6.0 SW 7 9 4 5 1010.9 1006.5 0.0
06/04:30am 18.3 16.2 6.5 46 6.0 SW 7 7 4 4 1010.7 1006.3 0.0
06/04:00am 17.8 15.8 7.0 49 5.6 SW 7 9 4 5 1010.8 1006.4 0.0
06/03:30am 18.5 16.5 6.4 45 6.2 SSW 6 9 3 5 1010.8 1006.4 0.0
06/03:00am 18.6 16.7 6.8 46 6.1 SSW 6 7 3 4 1010.9 1006.5 0.0
06/02:30am 18.8 16.8 6.3 44 6.4 S 6 9 3 5 1011.1 1006.7 0.0
06/02:00am 19.9 17.6 5.5 39 7.3 SSE 7 11 4 6 1011.4 1007.0 0.0
06/01:30am 19.3 17.1 6.4 43 6.6 SSE 7 9 4 5 1011.6 1007.2 0.0
06/01:00am 19.8 17.5 5.5 39 7.2 SSE 7 11 4 6 1011.7 1007.4 0.0
06/12:30am 21.0 18.1 4.6 34 8.2 SSE 9 13 5 7 1011.8 1007.5 0.0
06/12:00am 21.0 18.4 4.1 33 8.4 SSE 7 9 4 5 1012.1 1007.8 0.0
 
Date/Time
CST
Temp
°C
App
Temp
°C
Dew
Point
Rel
Hum
%
Delta-T
°C
Wind Press
QNH
hPa
Press
MSL
hPa
Rain
since 9 am
mm
Dir
 
Spd
km/h
Gust
km/h
Spd
kts
Gust
kts
05/11:30pm 22.2 18.8 3.8 30 9.2 SE 11 13 6 7 1012.3 1008.0 0.0
05/11:00pm 23.2 19.6 3.2 27 9.9 SSE 11 15 6 8 1012.1 1007.8 0.0
05/10:30pm 23.6 20.0 3.0 26 10.2 SSE 11 15 6 8 1012.0 1007.7 0.0
05/10:00pm 24.9 20.8 2.4 23 11.1 SSE 13 17 7 9 1011.9 1007.6 0.0
05/09:30pm 24.8 21.1 2.3 23 11.1 SSE 11 13 6 7 1011.7 1007.4 0.0
05/09:00pm 26.0 21.7 1.3 20 12.1 SSE 13 17 7 9 1011.6 1007.2 0.0
05/08:30pm 26.9 22.6 1.3 19 12.6 SSE 13 19 7 10 1011.4 1007.0 0.0
05/08:00pm 28.0 22.5 0.7 17 13.4 SSE 19 24 10 13 1011.0 1006.6 0.0
05/07:30pm 28.6 23.9 1.2 17 13.6 SSE 15 24 8 13 1010.5 1006.2 0.0
05/07:00pm 29.7 24.1 1.2 16 14.2 SSE 20 30 11 16 1010.0 1005.6 0.0
05/06:30pm 30.8 25.9 2.1 16 14.7 SSE 17 22 9 12 1009.7 1005.3 0.0
05/06:00pm 31.4 25.7 2.6 16 14.9 SSE 22 33 12 18 1009.4 1005.0 0.0
05/05:30pm 32.2 27.7 4.1 17 15.0 SSE 17 26 9 14 1009.1 1004.7 0.0
05/05:00pm 32.0 26.3 3.1 16 15.1 SSE 22 33 12 18 1009.0 1004.6 0.0
05/04:30pm 32.0 27.5 2.1 15 15.4 S 15 26 8 14 1009.0 1004.6 0.0
05/04:00pm 33.0 28.6 2.9 15 15.8 S 15 30 8 16 1009.2 1004.8 0.0
05/03:30pm 32.8 28.0 2.8 15 15.7 S 17 33 9 18 1009.4 1005.0 0.0
05/03:00pm 32.6 28.5 4.4 17 15.1 SSE 15 24 8 13 1009.9 1005.5 0.0
05/02:30pm 31.7 27.5 3.7 17 14.8 SE 15 24 8 13 1010.1 1005.8 0.0
05/02:00pm 32.0 28.3 4.7 18 14.7 S 13 26 7 14 1010.5 1006.2 0.0
05/01:30pm 31.3 27.5 5.7 20 13.9 S 15 30 8 16 1011.1 1006.7 0.0
05/01:00pm 31.1 27.5 4.8 19 14.1 S 13 24 7 13 1011.6 1007.2 0.0
05/12:30pm 30.3 27.3 6.2 22 13.2 SE 11 20 6 11 1012.1 1007.8 0.0
05/12:00pm 29.3 24.8 6.0 23 12.6 SSE 19 28 10 15 1012.7 1008.3 0.0
05/11:30am 28.6 25.2 6.1 24 12.1 S 13 28 7 15 1013.2 1008.8 0.0
05/11:00am 28.0 24.8 6.7 26 11.6 SSE 13 20 7 11 1013.5 1009.2 0.0
05/10:30am 27.7 24.2 7.0 27 11.3 SE 15 26 8 14 1013.8 1009.5 0.0
05/10:00am 27.0 23.6 7.5 29 10.7 SSE 15 26 8 14 1014.2 1009.9 0.0
05/09:30am 26.1 22.2 7.2 30 10.3 SSE 17 26 9 14 1014.2 1009.9 0.0
05/09:00am 26.0 22.2 7.6 31 10.0 SSE 17 24 9 13 1014.2 1009.9 0.0
05/08:30am 25.4 22.1 8.0 33 9.5 SSE 15 24 8 13 1014.1 1009.8 0.0
05/08:00am 23.8 21.5 9.0 39 8.2 SSE 11 15 6 8 1014.2 1009.9 0.0
05/07:30am 21.5 19.7 9.4 46 6.7 SSE 9 15 5 8 1013.9 1009.6 0.0
05/07:00am 18.4 16.6 9.5 56 4.8 S 9 13 5 7 1013.7 1009.4 0.0
05/06:30am 17.1 15.6 9.3 60 4.2 S 7 13 4 7 1013.5 1009.2 0.0
05/06:00am 16.5 14.6 9.2 62 3.9 SSW 9 11 5 6 1013.2 1008.8 0.0
05/05:30am 17.4 15.8 8.8 57 4.6 S 7 13 4 7 1013.0 1008.6 0.0
05/05:00am 17.7 15.7 8.8 56 4.7 S 9 13 5 7 1012.8 1008.4 0.0
05/04:30am 18.0 16.0 8.8 55 4.9 S 9 13 5 7 1012.4 1008.1 0.0
05/04:00am 18.1 16.2 9.2 56 4.8 S 9 11 5 6 1012.4 1008.1 0.0
05/03:30am 18.1 16.2 8.9 55 4.9 S 9 11 5 6 1012.6 1008.2 0.0
05/03:00am 18.6 16.7 9.1 54 5.1 S 9 11 5 6 1012.4 1008.1 0.0
05/02:30am 19.1 17.2 9.0 52 5.4 S 9 11 5 6 1012.4 1008.1 0.0
05/02:00am 18.6 17.2 9.7 56 4.8 SSE 7 7 4 4 1012.6 1008.2 0.0
05/01:30am 20.0 18.0 8.7 48 6.1 S 9 11 5 6 1012.7 1008.3 0.0
05/01:00am 20.8 18.7 8.4 45 6.7 S 9 11 5 6 1012.9 1008.5 0.0
05/12:30am 20.6 19.0 8.9 47 6.4 SSE 7 7 4 4 1013.1 1008.7 0.0
05/12:00am 21.6 19.8 7.8 41 7.4 SSE 7 9 4 5 1013.2 1008.8 0.0
 
Date/Time
CST
Temp
°C
App
Temp
°C
Dew
Point
Rel
Hum
%
Delta-T
°C
Wind Press
QNH
hPa
Press
MSL
hPa
Rain
since 9 am
mm
Dir
 
Spd
km/h
Gust
km/h
Spd
kts
Gust
kts
04/11:30pm 22.9 19.8 7.1 36 8.4 SSE 13 19 7 10 1013.1 1008.7 0.0
04/11:00pm 24.5 20.9 6.7 32 9.5 SSE 15 22 8 12 1013.0 1008.6 0.0
04/10:30pm 24.7 21.0 6.4 31 9.7 SSE 15 19 8 10 1013.1 1008.7 0.0
04/10:00pm 25.0 21.3 6.2 30 10.0 SSE 15 20 8 11 1012.9 1008.5 0.0
04/09:30pm 25.3 22.0 6.5 30 10.0 SSE 13 17 7 9 1012.9 1008.5 0.0
04/09:00pm 26.2 22.8 5.7 27 10.8 SSE 13 17 7 9 1012.8 1008.4 0.0
04/08:30pm 26.8 23.8 6.2 27 11.0 SSE 11 17 6 9 1012.6 1008.2 0.0
04/08:00pm 27.7 24.3 5.9 25 11.7 SSE 13 20 7 11 1012.1 1007.8 0.0
04/07:30pm 28.5 24.7 6.0 24 12.1 SSE 15 20 8 11 1011.8 1007.5 0.0
04/07:00pm 29.6 25.1 6.3 23 12.7 SSE 19 28 10 15 1011.6 1007.2 0.0
04/06:30pm 30.3 25.5 5.6 21 13.4 SSE 20 30 11 16 1011.1 1006.7 0.0
04/06:00pm 31.7 28.1 6.7 21 13.9 S 15 24 8 13 1010.8 1006.4 0.0
04/05:30pm 32.1 27.6 7.0 21 14.0 SSE 20 35 11 19 1010.4 1006.1 0.0
04/05:00pm 31.8 27.1 6.1 20 14.1 SSE 20 33 11 18 1010.3 1006.0 0.0
04/04:30pm 32.4 27.4 6.6 20 14.3 S 22 33 12 18 1010.3 1006.0 0.0
04/04:00pm 32.4 28.4 6.6 20 14.3 S 17 26 9 14 1010.5 1006.2 0.0
04/03:30pm 32.4 27.8 5.8 19 14.6 S 19 28 10 15 1010.8 1006.4 0.0
04/03:00pm 32.2 27.9 7.1 21 14.0 SSE 19 35 10 19 1011.1 1006.7 0.0
04/02:30pm 31.9 28.0 6.9 21 13.9 SSE 17 24 9 13 1011.5 1007.1 0.0
04/02:00pm 32.3 29.1 8.5 23 13.6 S 15 26 8 14 1012.0 1007.7 0.0
04/01:30pm 31.0 26.8 7.5 23 13.1 S 19 30 10 16 1012.6 1008.2 0.0
04/01:00pm 30.7 26.8 7.2 23 13.1 S 17 24 9 13 1013.1 1008.7 0.0
04/12:30pm 30.0 26.3 7.8 25 12.4 S 17 30 9 16 1013.7 1009.4 0.0
04/12:00pm 29.1 25.8 8.2 27 11.7 S 15 24 8 13 1014.4 1010.0 0.0
04/11:30am 28.7 25.5 8.4 28 11.4 SSE 15 26 8 14 1014.8 1010.4 0.0
04/11:00am 27.9 24.3 8.2 29 11.0 SSE 17 24 9 13 1015.4 1011.1 0.0
04/10:30am 27.0 23.2 8.9 32 10.1 SSE 19 30 10 16 1015.6 1011.3 0.0
04/10:00am 25.9 21.6 8.0 32 9.8 SSE 20 30 11 16 1015.6 1011.3 0.0
04/09:30am 25.5 21.9 8.5 34 9.4 SE 17 28 9 15 1015.5 1011.2 0.0
04/09:00am 24.5 20.4 8.0 35 9.0 SE 19 32 10 17 1015.5 1011.2 0.0
04/08:30am 23.8 20.9 8.2 37 8.5 SE 13 19 7 10 1015.5 1011.2 0.0
04/08:00am 22.5 20.8 10.0 45 7.0 SSE 9 17 5 9 1015.5 1011.2 0.0
04/07:30am 20.3 19.8 12.0 59 4.8 S 6 9 3 5 1015.4 1011.1 0.0
04/07:00am 18.7 18.2 12.5 67 3.6 S 7 9 4 5 1015.1 1010.8 0.0
04/06:30am 17.4 16.9 12.7 74 2.7 S 7 9 4 5 1014.7 1010.3 0.0
04/06:00am 16.5 17.0 14.0 85 1.5 SSE 4 6 2 3 1014.1 1009.8 0.0
04/05:30am 17.7 17.6 13.8 78 2.3 S 7 9 4 5 1013.7 1009.4 0.0
04/05:00am 18.1 18.5 13.8 76 2.5 SSW 4 6 2 3 1013.6 1009.3 0.0
04/04:30am 18.6 18.4 13.5 72 3.0 SSW 7 13 4 7 1013.3 1009.0 0.0
04/04:00am 18.8 18.8 14.1 74 2.8 SSW 7 9 4 5 1013.0 1008.6 0.0
04/03:30am 19.3 19.5 14.3 73 3.0 S 6 7 3 4 1012.7 1008.3 0.0
04/03:00am 19.5 19.9 14.7 74 2.9 S 6 9 3 5 1013.0 1008.6 0.0
04/02:30am 19.7 20.1 14.7 73 3.0 S 6 7 3 4 1013.0 1008.6 0.0
04/02:00am 20.2 21.1 16.0 77 2.6 SSE 6 7 3 4 1013.2 1008.8 0.0
04/01:30am 20.4 21.5 16.6 79 2.4 SSE 6 7 3 4 1013.3 1009.0 0.0
04/01:00am 19.8 21.0 17.4 86 1.5 SE 7 7 4 4 1013.3 1009.0 0.0
04/12:30am 20.4 21.5 17.2 82 2.0 SE 7 9 4 5 1013.6 1009.3 0.0
04/12:00am 21.4 22.7 17.6 79 2.4 SE 7 9 4 5 1013.8 1009.5 0.0
 
Date/Time
CST
Temp
°C
App
Temp
°C
Dew
Point
Rel
Hum
%
Delta-T
°C
Wind Press
QNH
hPa
Press
MSL
hPa
Rain
since 9 am
mm
Dir
 
Spd
km/h
Gust
km/h
Spd
kts
Gust
kts
03/11:30pm 22.0 23.5 17.6 76 2.8 SE 6 6 3 3 1014.0 1009.7 0.0
03/11:00pm 21.8 23.6 18.2 80 2.3 ESE 6 7 3 4 1013.9 1009.6 0.0
03/10:30pm 22.3 23.7 17.9 76 2.8 ESE 7 9 4 5 1014.1 1009.8 0.0
03/10:00pm 23.1 24.3 17.3 70 3.7 SE 7 7 4 4 1013.9 1009.6 0.0
03/09:30pm 24.5 25.1 16.7 61 4.9 SE 9 13 5 7 1013.8 1009.5 0.0
03/09:00pm 25.0 26.1 17.0 61 5.1 ESE 7 11 4 6 1013.5 1009.2 0.0
03/08:30pm 25.5 26.1 16.9 59 5.5 SE 9 13 5 7 1013.2 1008.8 0.0
03/08:00pm 25.7 26.4 17.1 59 5.5 SE 9 13 5 7 1012.8 1008.4 0.0
03/07:30pm 26.4 26.5 16.6 55 6.2 SSE 11 17 6 9 1012.2 1007.9 0.0
03/07:00pm 27.3 27.3 16.3 51 7.0 S 11 19 6 10 1012.2 1007.9 0.0
03/06:30pm 27.8 27.9 16.4 50 7.2 S 11 19 6 10 1011.7 1007.4 0.0
03/06:00pm 28.7 28.8 16.6 48 7.7 S 11 15 6 8 1011.3 1006.9 0.0
03/05:30pm 28.1 28.3 16.7 50 7.3 SE 11 17 6 9 1011.1 1006.7 0.0
03/05:00pm 28.1 28.3 16.7 50 7.3 SSE 11 17 6 9 1010.9 1006.5 0.0
03/04:30pm 27.7 27.8 16.6 50 7.1 SSE 11 20 6 11 1011.1 1006.7 0.0
03/04:00pm 28.3 27.8 16.9 50 7.3 SSE 15 24 8 13 1011.1 1006.7 0.0
03/03:30pm 28.4 27.2 17.0 50 7.3 SE 19 24 10 13 1011.2 1006.8 0.0
03/03:00pm 27.8 27.5 17.3 52 6.8 SSE 15 24 8 13 1011.4 1007.0 0.0
03/02:30pm 27.7 26.8 16.9 51 6.9 SSE 17 32 9 17 1011.6 1007.2 0.0
03/02:00pm 28.0 27.1 17.8 54 6.6 SE 19 28 10 15 1011.8 1007.5 0.0
03/01:30pm 26.9 26.1 17.1 55 6.3 SE 17 24 9 13 1012.1 1007.8 0.0
03/01:00pm 27.1 25.9 17.0 54 6.4 SE 19 30 10 16 1012.1 1007.8 0.0

Other Formats:

Comma delimited format used in spreadsheet applications
http://www.bom.gov.au/fwo/IDD60801/IDD60801.94328.axf

JavaScript Object Notation format (JSON) in row-major order
http://www.bom.gov.au/fwo/IDD60801/IDD60801.94328.json